Time;durP1;ratioP1;P1;durP2;ratioP2;P2;SDS_P1;SDS_P2;PMS_P1;PMS_P2;Temp;Humidity;BMP_temperature;BMP_pressure;BME280_temperature;BME280_humidity;BME280_pressure;Samples;Min_cycle;Max_cycle;Signal;HPM_P1;HPM_P2
2022/12/02 00:01:43;;;;;;;26.57;16.53;;;5.20;99.90;;;;;;5086992;28;20419;-28
2022/12/02 00:04:15;;;;;;;29.17;17.37;;;5.10;99.90;;;;;;5073394;28;20760;-28
2022/12/02 00:06:41;;;;;;;27.67;17.10;;;5.20;99.90;;;;;;5089943;28;20184;-29
2022/12/02 00:09:22;;;;;;;32.20;18.77;;;5.20;99.90;;;;;;5090324;28;20441;-28
2022/12/02 00:11:49;;;;;;;33.40;18.57;;;5.20;99.90;;;;;;5089903;28;20177;-28
2022/12/02 00:14:26;;;;;;;32.00;19.07;;;5.10;99.90;;;;;;5089868;28;20437;-29
2022/12/02 00:16:52;;;;;;;24.53;15.13;;;5.30;99.90;;;;;;5081522;28;20626;-28
2022/12/02 00:19:18;;;;;;;26.77;16.20;;;5.20;99.90;;;;;;5090280;28;20437;-28
2022/12/02 00:21:44;;;;;;;32.50;17.87;;;5.00;99.90;;;;;;5090745;28;20524;-29
2022/12/02 00:24:10;;;;;;;27.87;17.07;;;5.30;99.90;;;;;;5089879;28;20427;-29
2022/12/02 00:26:35;;;;;;;27.97;17.30;;;5.00;99.90;;;;;;5090492;28;20433;-28
2022/12/02 00:29:01;;;;;;;26.73;16.03;;;4.90;99.90;;;;;;5089855;28;20291;-28
2022/12/02 00:31:27;;;;;;;28.80;16.30;;;5.00;99.90;;;;;;5090181;28;20222;-28
2022/12/02 00:33:53;;;;;;;26.13;16.23;;;5.00;99.90;;;;;;5088498;28;20196;-28
2022/12/02 00:36:19;;;;;;;25.90;16.13;;;5.00;99.90;;;;;;5089996;28;20697;-28
2022/12/02 00:38:44;;;;;;;23.50;15.53;;;5.00;99.90;;;;;;5089824;28;20419;-28
2022/12/02 00:41:10;;;;;;;26.80;16.40;;;5.20;99.90;;;;;;5088329;28;20177;-28
2022/12/02 00:46:33;;;;;;;28.90;17.33;;;5.10;99.90;;;;;;5089787;28;20192;-28
2022/12/02 00:49:05;;;;;;;26.43;15.23;;;5.20;99.90;;;;;;5089653;28;20558;-29
2022/12/02 00:51:30;;;;;;;27.93;16.10;;;5.10;99.90;;;;;;5088508;28;20537;-28
2022/12/02 00:53:56;;;;;;;26.63;15.87;;;5.20;99.90;;;;;;5089474;28;20513;-28
2022/12/02 00:56:22;;;;;;;28.60;16.40;;;5.00;99.90;;;;;;5089112;28;20220;-28
2022/12/02 00:58:48;;;;;;;27.30;16.20;;;5.20;99.90;;;;;;5089485;28;20188;-28
2022/12/02 01:01:14;;;;;;;27.53;16.30;;;5.40;99.90;;;;;;5089699;28;20193;-28
2022/12/02 01:03:39;;;;;;;28.10;16.40;;;5.50;99.90;;;;;;5089314;28;20418;-28
2022/12/02 01:06:05;;;;;;;31.93;18.40;;;5.20;99.90;;;;;;5089705;28;20959;-28
2022/12/02 01:08:31;;;;;;;27.23;17.13;;;5.20;99.90;;;;;;5089025;28;20211;-28
2022/12/02 01:10:57;;;;;;;31.97;19.40;;;5.20;99.90;;;;;;5089676;28;20601;-28
2022/12/02 01:13:25;;;;;;;38.03;19.50;;;5.20;99.90;;;;;;5089067;28;20433;-28
2022/12/02 01:15:51;;;;;;;35.30;20.70;;;5.20;99.90;;;;;;5086361;28;20458;-29
2022/12/02 01:18:17;;;;;;;36.07;20.30;;;5.10;99.90;;;;;;5081481;28;20508;-28
2022/12/02 01:20:43;;;;;;;41.70;22.67;;;5.20;99.90;;;;;;5088970;28;20623;-28
2022/12/02 01:23:09;;;;;;;34.07;21.33;;;5.20;99.90;;;;;;5088700;28;20454;-28
2022/12/02 01:25:34;;;;;;;45.20;22.43;;;5.30;99.90;;;;;;5089257;28;20186;-28
2022/12/02 01:28:00;;;;;;;41.17;21.47;;;5.10;99.90;;;;;;5089264;28;20422;-29
2022/12/02 01:30:26;;;;;;;43.60;22.70;;;5.30;99.90;;;;;;5088757;28;20191;-28
2022/12/02 01:32:51;;;;;;;42.30;22.43;;;5.10;99.90;;;;;;5088796;28;20200;-29
2022/12/02 01:35:18;;;;;;;48.70;25.37;;;5.40;99.90;;;;;;5085980;28;20603;-28
2022/12/02 01:37:43;;;;;;;40.17;23.27;;;5.20;99.90;;;;;;5088914;28;20432;-29
2022/12/02 01:40:10;;;;;;;46.80;25.17;;;5.20;99.90;;;;;;5088818;28;20422;-28
2022/12/02 01:42:37;;;;;;;47.10;24.93;;;5.30;99.90;;;;;;5088684;28;20283;-28
2022/12/02 01:45:04;;;;;;;44.60;25.47;;;5.20;99.90;;;;;;5088706;28;20471;-28
2022/12/02 01:47:30;;;;;;;47.40;25.43;;;5.20;99.90;;;;;;5088886;28;20422;-28
2022/12/02 01:49:56;;;;;;;45.03;24.90;;;5.20;99.90;;;;;;5088300;28;20463;-28
2022/12/02 01:52:22;;;;;;;50.37;25.37;;;5.20;99.90;;;;;;5088209;28;20439;-28
2022/12/02 01:54:50;;;;;;;52.47;24.33;;;5.20;99.90;;;;;;5088422;28;20433;-28
2022/12/02 01:57:24;;;;;;;48.83;26.70;;;5.20;99.90;;;;;;5088846;28;20572;-29
2022/12/02 01:59:50;;;;;;;55.73;26.57;;;5.20;99.90;;;;;;5088264;28;20438;-29
2022/12/02 02:02:31;;;;;;;44.83;24.40;;;5.20;99.90;;;;;;5088529;28;20924;-29
2022/12/02 02:05:04;;;;;;;47.30;26.03;;;5.20;99.90;;;;;;5088122;28;20450;-29
2022/12/02 02:07:32;;;;;;;51.77;25.90;;;5.10;99.90;;;;;;5088694;28;20635;-28
2022/12/02 02:09:58;;;;;;;51.77;25.87;;;5.10;99.90;;;;;;5087989;28;20718;-29
2022/12/02 02:12:25;;;;;;;45.47;24.73;;;5.20;99.90;;;;;;5088029;28;20917;-29
2022/12/02 02:14:51;;;;;;;47.70;25.10;;;5.10;99.90;;;;;;5086801;28;20206;-28
2022/12/02 02:17:18;;;;;;;44.80;24.53;;;5.30;99.90;;;;;;5085112;28;20480;-29
2022/12/02 02:19:44;;;;;;;53.67;24.67;;;5.20;99.90;;;;;;5087300;28;20426;-28
2022/12/02 02:22:18;;;;;;;44.40;24.30;;;5.10;99.90;;;;;;5087389;28;20465;-28
2022/12/02 02:24:44;;;;;;;46.37;24.33;;;5.20;99.90;;;;;;5087212;28;20513;-28
2022/12/02 02:27:10;;;;;;;49.73;25.03;;;5.00;99.90;;;;;;5087635;28;20529;-28
2022/12/02 02:29:35;;;;;;;48.00;25.60;;;5.00;99.90;;;;;;5086550;28;20812;-28
2022/12/02 02:32:03;;;;;;;51.27;24.93;;;4.90;99.90;;;;;;5087012;28;20193;-29
2022/12/02 02:34:28;;;;;;;48.13;27.07;;;5.00;99.90;;;;;;5085787;28;20223;-29
2022/12/02 02:36:54;;;;;;;51.90;27.30;;;5.20;99.90;;;;;;5087178;28;20961;-28
2022/12/02 02:39:21;;;;;;;51.70;25.80;;;5.20;99.90;;;;;;5086940;28;20569;-28
2022/12/02 02:41:47;;;;;;;50.20;25.37;;;5.10;99.90;;;;;;5087292;28;20525;-29
2022/12/02 02:44:14;;;;;;;44.83;26.30;;;5.00;99.90;;;;;;5086653;28;20498;-28
2022/12/02 02:46:40;;;;;;;55.40;27.53;;;5.20;99.90;;;;;;5086714;28;20441;-29
2022/12/02 02:49:05;;;;;;;53.47;27.50;;;5.20;99.90;;;;;;5086731;28;20426;-29
2022/12/02 02:51:32;;;;;;;47.23;25.50;;;5.10;99.90;;;;;;5087319;28;20770;-28
2022/12/02 02:53:57;;;;;;;52.63;26.23;;;5.10;99.90;;;;;;5086647;28;20184;-29
2022/12/02 02:56:23;;;;;;;51.80;26.07;;;5.30;99.90;;;;;;5086770;28;20466;-29
2022/12/02 02:58:49;;;;;;;47.57;26.87;;;5.20;99.90;;;;;;5086486;28;20560;-28
2022/12/02 03:01:23;;;;;;;54.67;28.20;;;5.20;99.90;;;;;;5086651;28;20267;-29
2022/12/02 03:03:53;;;;;;;55.20;25.63;;;5.10;99.90;;;;;;5085137;28;20184;-28
2022/12/02 03:06:20;;;;;;;53.30;27.80;;;5.10;99.90;;;;;;5086887;28;20445;-29
2022/12/02 03:08:48;;;;;;;47.30;24.80;;;5.00;99.90;;;;;;5086302;28;20986;-29
2022/12/02 03:11:14;;;;;;;50.97;27.10;;;5.00;99.90;;;;;;5086785;28;20509;-29
2022/12/02 03:13:42;;;;;;;46.77;25.97;;;5.00;99.90;;;;;;5086024;28;20949;-29
2022/12/02 03:16:11;;;;;;;48.25;24.02;;;5.10;99.90;;;;;;5049506;28;1064196;-29
2022/12/02 03:18:39;;;;;;;50.47;26.27;;;5.10;99.90;;;;;;5087134;28;20351;-28
2022/12/02 03:21:06;;;;;;;49.90;25.27;;;5.10;99.90;;;;;;5087577;28;20468;-28
2022/12/02 03:23:32;;;;;;;55.47;26.10;;;5.00;99.90;;;;;;5087177;28;20935;-29
2022/12/02 03:25:58;;;;;;;48.67;25.93;;;4.90;99.90;;;;;;5087152;28;20427;-28
2022/12/02 03:28:25;;;;;;;50.07;24.27;;;5.10;99.90;;;;;;5087146;28;20422;-28
2022/12/02 03:30:51;;;;;;;48.73;24.40;;;5.20;99.90;;;;;;5087242;28;20407;-29
2022/12/02 03:33:17;;;;;;;52.30;25.40;;;5.00;99.90;;;;;;5086402;28;20449;-28
2022/12/02 03:35:43;;;;;;;43.63;23.50;;;5.10;99.90;;;;;;5087030;28;20295;-28
2022/12/02 03:38:09;;;;;;;46.47;23.77;;;5.00;99.90;;;;;;5086091;28;20573;-28
2022/12/02 03:40:35;;;;;;;41.67;23.33;;;5.00;99.90;;;;;;5087859;28;20425;-28
2022/12/02 03:43:01;;;;;;;44.20;23.40;;;5.20;99.90;;;;;;5089684;28;20212;-28
2022/12/02 03:45:27;;;;;;;51.73;25.60;;;5.00;99.90;;;;;;5091118;28;20467;-28
2022/12/02 03:47:53;;;;;;;41.57;22.50;;;5.10;99.90;;;;;;5091187;28;20426;-28
2022/12/02 03:50:20;;;;;;;50.33;25.13;;;5.20;99.90;;;;;;5090748;28;20418;-28
2022/12/02 03:52:46;;;;;;;48.63;22.77;;;5.20;99.90;;;;;;5090711;28;20922;-28
2022/12/02 03:55:11;;;;;;;43.83;23.60;;;5.00;99.90;;;;;;5089273;28;20418;-28
2022/12/02 03:57:39;;;;;;;41.00;22.00;;;5.30;99.90;;;;;;5090501;28;20238;-28
2022/12/02 04:00:05;;;;;;;45.73;22.90;;;5.10;99.90;;;;;;5090604;28;20184;-28
2022/12/02 04:02:31;;;;;;;48.10;24.60;;;5.10;99.90;;;;;;5090613;28;20454;-28
2022/12/02 04:04:57;;;;;;;44.60;23.80;;;5.10;99.90;;;;;;5090734;28;20760;-28
2022/12/02 04:07:22;;;;;;;45.70;21.57;;;5.00;99.90;;;;;;5090789;28;20187;-28
2022/12/02 04:09:48;;;;;;;50.40;23.20;;;5.00;99.90;;;;;;5089953;28;20571;-28
2022/12/02 04:12:14;;;;;;;42.67;22.80;;;5.10;99.90;;;;;;5090594;28;20241;-28
2022/12/02 04:14:39;;;;;;;49.43;22.60;;;4.90;99.90;;;;;;5090214;28;20752;-28
2022/12/02 04:17:05;;;;;;;41.47;22.00;;;5.00;99.90;;;;;;5087655;28;20212;-28
2022/12/02 04:19:30;;;;;;;42.43;21.63;;;5.10;99.90;;;;;;5089950;28;20537;-29
2022/12/02 04:21:56;;;;;;;42.47;21.63;;;5.10;99.90;;;;;;5090944;28;20176;-29
2022/12/02 04:24:22;;;;;;;48.00;22.70;;;5.00;99.90;;;;;;5089724;28;20192;-28
2022/12/02 04:26:47;;;;;;;46.67;23.53;;;5.00;99.90;;;;;;5088976;28;20180;-28
2022/12/02 04:29:13;;;;;;;45.13;23.30;;;5.20;99.90;;;;;;5089716;28;20286;-28
2022/12/02 04:31:38;;;;;;;48.00;23.03;;;5.10;99.90;;;;;;5090422;28;20181;-28
2022/12/02 04:34:04;;;;;;;45.67;21.63;;;5.00;99.90;;;;;;5088074;28;20635;-28
2022/12/02 04:36:30;;;;;;;46.07;22.70;;;5.20;99.90;;;;;;5088740;28;20248;-29
2022/12/02 04:38:56;;;;;;;47.20;22.70;;;5.00;99.90;;;;;;5089619;28;20638;-29
2022/12/02 04:41:22;;;;;;;42.37;20.90;;;5.10;99.90;;;;;;5090132;28;20579;-29
2022/12/02 04:43:47;;;;;;;49.20;23.90;;;5.10;99.90;;;;;;5089906;28;20206;-28
2022/12/02 04:46:13;;;;;;;43.57;21.83;;;5.20;99.90;;;;;;5089842;28;20184;-28
2022/12/02 04:48:38;;;;;;;45.40;21.47;;;5.20;99.90;;;;;;5089696;28;20196;-28
2022/12/02 04:51:04;;;;;;;47.80;22.27;;;5.30;99.90;;;;;;5089773;28;20241;-29
2022/12/02 04:53:30;;;;;;;48.23;24.43;;;5.00;99.90;;;;;;5089328;28;20275;-29
2022/12/02 04:55:55;;;;;;;48.70;23.70;;;5.10;99.90;;;;;;5089568;28;20216;-29
2022/12/02 04:58:21;;;;;;;45.17;23.03;;;5.10;99.90;;;;;;5089825;28;20188;-29
2022/12/02 05:00:47;;;;;;;46.80;23.10;;;5.00;99.90;;;;;;5089469;28;20196;-29
2022/12/02 05:03:12;;;;;;;48.90;23.67;;;5.00;99.90;;;;;;5089408;28;20603;-29
2022/12/02 05:05:38;;;;;;;45.47;24.27;;;5.20;99.90;;;;;;5089710;28;20258;-28
2022/12/02 05:08:04;;;;;;;48.30;24.33;;;5.00;99.90;;;;;;5089432;28;20251;-28
2022/12/02 05:10:30;;;;;;;48.97;23.33;;;4.90;99.90;;;;;;5089165;28;20187;-28
2022/12/02 05:12:55;;;;;;;55.20;24.77;;;4.80;99.90;;;;;;5089278;28;20426;-28
2022/12/02 05:15:21;;;;;;;50.97;23.90;;;4.90;99.90;;;;;;5089532;28;20678;-28
2022/12/02 05:17:46;;;;;;;45.07;23.93;;;5.10;99.90;;;;;;5088637;28;20266;-28
2022/12/02 05:20:13;;;;;;;46.40;24.03;;;5.20;99.90;;;;;;5089052;28;20177;-28
2022/12/02 05:22:39;;;;;;;46.87;24.57;;;4.90;99.90;;;;;;5087153;28;20195;-28
2022/12/02 05:25:05;;;;;;;52.63;24.33;;;5.00;99.90;;;;;;5089449;28;20919;-28
2022/12/02 05:27:31;;;;;;;49.10;23.27;;;4.90;99.90;;;;;;5089045;28;20456;-28
2022/12/02 05:29:56;;;;;;;50.43;25.67;;;5.10;99.90;;;;;;5088987;28;20453;-29
2022/12/02 05:32:22;;;;;;;57.20;26.07;;;4.90;99.90;;;;;;5088824;28;20237;-28
2022/12/02 05:34:48;;;;;;;56.73;27.57;;;4.90;99.90;;;;;;5087333;28;20287;-28
2022/12/02 05:37:13;;;;;;;55.40;24.47;;;4.90;99.90;;;;;;5089074;28;20232;-28
2022/12/02 05:39:39;;;;;;;57.33;27.30;;;4.90;99.90;;;;;;5088545;28;20261;-28
2022/12/02 05:42:07;;;;;;;55.80;26.77;;;4.80;99.90;;;;;;5089134;28;20188;-29
2022/12/02 05:44:33;;;;;;;53.17;26.40;;;4.90;99.90;;;;;;5088553;28;20216;-29
2022/12/02 05:47:08;;;;;;;51.80;24.97;;;4.90;99.90;;;;;;5089187;28;20434;-29
2022/12/02 05:49:34;;;;;;;61.63;27.70;;;4.90;99.90;;;;;;5088351;28;20406;-29
2022/12/02 05:52:06;;;;;;;56.53;27.93;;;5.00;99.90;;;;;;5088530;28;20430;-28
2022/12/02 05:54:31;;;;;;;54.90;27.20;;;4.90;99.90;;;;;;5088012;28;20207;-29
2022/12/02 05:57:02;;;;;;;60.60;25.87;;;5.10;99.90;;;;;;5088586;28;20863;-28
2022/12/02 05:59:28;;;;;;;55.87;28.90;;;5.00;99.90;;;;;;5088096;28;20731;-29
2022/12/02 06:01:56;;;;;;;54.33;27.40;;;5.10;99.90;;;;;;5087199;28;20453;-28
2022/12/02 06:04:31;;;;;;;63.70;28.77;;;4.80;99.90;;;;;;5087844;28;20418;-28
2022/12/02 06:07:08;;;;;;;70.10;29.40;;;4.80;99.90;;;;;;5086996;28;20430;-28
2022/12/02 06:09:34;;;;;;;65.47;29.60;;;5.00;99.90;;;;;;5087855;28;20424;-28
2022/12/02 06:12:01;;;;;;;58.83;29.33;;;4.90;99.90;;;;;;5088415;28;20505;-29
2022/12/02 06:14:32;;;;;;;60.73;29.67;;;4.80;99.90;;;;;;5086605;28;20552;-29
2022/12/02 06:17:00;;;;;;;67.43;30.60;;;4.90;99.90;;;;;;5088074;28;20458;-28
2022/12/02 06:19:43;;;;;;;58.13;29.50;;;5.10;99.90;;;;;;5087659;28;20421;-28
2022/12/02 06:22:31;;;;;;;61.27;31.43;;;5.00;99.90;;;;;;5088416;28;21048;-28
2022/12/02 06:25:00;;;;;;;59.93;29.43;;;5.00;99.90;;;;;;5087499;28;20909;-29
2022/12/02 06:27:27;;;;;;;56.07;28.90;;;5.00;99.90;;;;;;5088227;28;20424;-28
2022/12/02 06:30:00;;;;;;;67.57;30.63;;;4.80;99.90;;;;;;5087727;28;20517;-28
2022/12/02 06:32:37;;;;;;;58.97;28.80;;;5.00;99.90;;;;;;5087807;28;20427;-28
2022/12/02 06:35:15;;;;;;;59.50;28.90;;;4.80;99.90;;;;;;5087267;28;20428;-29
2022/12/02 06:37:42;;;;;;;66.97;29.50;;;5.00;99.90;;;;;;5087766;28;20477;-28
2022/12/02 06:40:30;;;;;;;59.23;28.03;;;5.00;99.90;;;;;;5087757;28;20423;-29
2022/12/02 06:42:59;;;;;;;60.17;28.30;;;4.90;99.90;;;;;;5087683;28;20799;-28
2022/12/02 06:45:30;;;;;;;62.00;28.13;;;5.00;99.90;;;;;;5088037;28;20782;-28
2022/12/02 06:48:01;;;;;;;66.13;27.97;;;5.00;99.90;;;;;;5086380;28;20776;-28
2022/12/02 06:50:32;;;;;;;59.53;27.27;;;4.90;99.90;;;;;;5087320;28;20428;-28
2022/12/02 06:53:34;;;;;;;59.47;28.53;;;5.10;99.90;;;;;;5087511;28;20483;-28
2022/12/02 06:56:03;;;;;;;46.20;25.50;;;4.80;99.90;;;;;;5074162;28;20465;-28
2022/12/02 06:58:29;;;;;;;55.90;25.50;;;5.00;99.90;;;;;;5087276;28;20442;-28
2022/12/02 07:01:06;;;;;;;55.07;27.73;;;4.90;99.90;;;;;;5087699;28;20442;-28
2022/12/02 07:03:35;;;;;;;60.53;27.43;;;5.00;99.90;;;;;;5087520;28;20605;-28
2022/12/02 07:06:24;;;;;;;50.00;25.17;;;5.00;99.90;;;;;;5087921;28;20414;-28
2022/12/02 07:08:50;;;;;;;52.07;25.87;;;4.80;99.90;;;;;;5087376;28;20413;-28
2022/12/02 07:11:48;;;;;;;55.37;26.23;;;4.90;99.90;;;;;;5087737;28;20454;-28
2022/12/02 07:14:20;;;;;;;52.27;25.63;;;4.70;99.90;;;;;;5087768;28;20430;-28
2022/12/02 07:16:47;;;;;;;49.03;24.57;;;5.00;99.90;;;;;;5090706;28;20781;-29
2022/12/02 07:19:17;;;;;;;56.80;25.60;;;4.80;99.90;;;;;;5091487;28;20422;-28
2022/12/02 07:21:43;;;;;;;48.60;24.60;;;4.90;99.90;;;;;;5091661;28;20451;-29
2022/12/02 07:24:14;;;;;;;52.90;25.53;;;5.10;99.90;;;;;;5081761;28;20956;-28
2022/12/02 07:26:41;;;;;;;50.07;24.57;;;5.00;99.90;;;;;;5071530;28;20530;-28
2022/12/02 07:29:12;;;;;;;55.47;24.20;;;5.00;99.90;;;;;;5086547;28;20417;-28
2022/12/02 07:31:43;;;;;;;45.30;25.43;;;4.90;99.90;;;;;;5071319;28;20411;-29
2022/12/02 07:34:10;;;;;;;42.80;24.03;;;5.00;99.90;;;;;;5069823;28;20997;-29
2022/12/02 07:36:35;;;;;;;44.60;22.67;;;5.00;99.90;;;;;;5071308;28;20868;-28
2022/12/02 07:39:02;;;;;;;42.00;21.23;;;4.80;99.90;;;;;;5070946;28;20415;-29
2022/12/02 07:41:28;;;;;;;52.63;25.57;;;4.70;99.90;;;;;;5071276;28;20289;-29
2022/12/02 07:43:53;;;;;;;45.37;22.70;;;4.90;99.90;;;;;;5070982;28;20446;-28
2022/12/02 07:46:19;;;;;;;46.07;23.83;;;4.70;99.90;;;;;;5071001;28;20181;-28
2022/12/02 07:48:45;;;;;;;44.00;21.90;;;4.90;99.90;;;;;;5071121;28;20203;-29
2022/12/02 07:51:11;;;;;;;41.00;21.80;;;4.90;99.90;;;;;;5070972;28;20562;-29
2022/12/02 07:53:36;;;;;;;47.23;22.53;;;4.90;99.90;;;;;;5070718;28;20660;-28
2022/12/02 07:56:03;;;;;;;49.43;23.23;;;4.90;99.90;;;;;;5070747;28;20483;-29
2022/12/02 07:58:29;;;;;;;38.27;21.10;;;4.80;99.90;;;;;;5070516;28;20631;-28
2022/12/02 08:00:55;;;;;;;41.83;21.57;;;4.90;99.90;;;;;;5070512;28;20413;-28
2022/12/02 08:03:20;;;;;;;38.50;22.10;;;4.90;99.90;;;;;;5070312;28;20653;-29
2022/12/02 08:05:46;;;;;;;40.70;21.13;;;5.00;99.90;;;;;;5070443;28;20687;-28
2022/12/02 08:08:12;;;;;;;39.03;21.10;;;4.90;99.90;;;;;;5069580;28;20178;-28
2022/12/02 08:10:37;;;;;;;39.13;20.63;;;5.00;99.90;;;;;;5070289;28;20177;-28
2022/12/02 08:13:03;;;;;;;41.67;21.07;;;4.70;99.90;;;;;;5070431;28;20774;-28
2022/12/02 08:15:28;;;;;;;39.37;20.70;;;4.90;99.90;;;;;;5070522;28;20256;-28
2022/12/02 08:17:55;;;;;;;36.17;20.40;;;5.00;99.90;;;;;;5090283;28;20216;-29
2022/12/02 08:20:21;;;;;;;34.37;19.40;;;4.80;99.90;;;;;;5090499;28;20666;-28
2022/12/02 08:22:47;;;;;;;35.87;18.70;;;4.90;99.90;;;;;;5090291;28;20419;-28
2022/12/02 08:25:12;;;;;;;31.30;18.63;;;5.00;99.90;;;;;;5072140;28;20189;-28
2022/12/02 08:27:39;;;;;;;36.33;20.60;;;5.00;99.90;;;;;;5068298;28;20224;-28
2022/12/02 08:30:08;;;;;;;34.70;18.53;;;5.00;99.90;;;;;;5069902;28;20169;-28
2022/12/02 08:32:34;;;;;;;36.30;19.50;;;4.80;99.90;;;;;;5070084;28;20426;-28
2022/12/02 08:35:00;;;;;;;35.67;19.77;;;4.70;99.90;;;;;;5069087;28;20454;-29
2022/12/02 08:37:25;;;;;;;35.97;20.87;;;4.70;99.90;;;;;;5068635;28;20495;-28
2022/12/02 08:39:51;;;;;;;38.50;21.40;;;4.90;99.90;;;;;;5069729;28;20207;-28
2022/12/02 08:42:17;;;;;;;44.33;20.03;;;5.00;99.90;;;;;;5070425;28;20171;-29
2022/12/02 08:44:42;;;;;;;36.63;21.03;;;4.90;99.90;;;;;;5069598;28;20234;-28
2022/12/02 08:47:08;;;;;;;39.20;19.07;;;4.90;99.90;;;;;;5070162;28;20575;-28
2022/12/02 08:49:34;;;;;;;38.00;20.47;;;4.90;99.90;;;;;;5069734;28;20315;-28
2022/12/02 08:51:59;;;;;;;40.13;20.57;;;4.90;99.90;;;;;;5069864;28;20222;-28
2022/12/02 08:54:25;;;;;;;35.40;21.20;;;4.90;99.90;;;;;;5069478;28;20188;-29
2022/12/02 08:56:51;;;;;;;37.07;20.13;;;4.80;99.90;;;;;;5069654;28;20580;-29
2022/12/02 08:59:17;;;;;;;34.80;20.47;;;4.70;99.90;;;;;;5069112;28;20902;-28
2022/12/02 09:01:43;;;;;;;41.10;19.20;;;4.90;99.90;;;;;;5068238;28;20180;-28
2022/12/02 09:04:08;;;;;;;37.03;21.17;;;4.80;99.90;;;;;;5069152;28;20408;-28
2022/12/02 09:06:34;;;;;;;36.97;20.63;;;4.90;99.90;;;;;;5069667;28;20610;-29
2022/12/02 09:09:00;;;;;;;38.03;19.27;;;5.00;99.90;;;;;;5069176;28;20177;-29
2022/12/02 09:11:25;;;;;;;37.50;19.93;;;4.70;99.90;;;;;;5069448;28;20181;-28
2022/12/02 09:13:51;;;;;;;34.97;19.67;;;4.70;99.90;;;;;;5069264;28;20181;-28
2022/12/02 09:16:17;;;;;;;34.33;20.83;;;4.80;99.90;;;;;;5075276;28;20201;-28
2022/12/02 09:18:42;;;;;;;33.27;19.60;;;4.80;99.90;;;;;;5089318;28;20177;-29
2022/12/02 09:21:08;;;;;;;33.13;19.60;;;4.60;99.90;;;;;;5089344;28;20176;-28
2022/12/02 09:23:33;;;;;;;38.33;21.10;;;4.90;99.90;;;;;;5084353;28;20177;-28
2022/12/02 09:25:59;;;;;;;34.07;18.50;;;4.60;99.90;;;;;;5069025;28;20181;-29
2022/12/02 09:28:25;;;;;;;34.00;18.53;;;4.90;99.90;;;;;;5068757;28;20180;-29
2022/12/02 09:30:51;;;;;;;31.00;18.70;;;4.80;99.90;;;;;;5068810;28;20307;-28
2022/12/02 09:33:16;;;;;;;35.50;20.47;;;4.90;99.90;;;;;;5068008;28;20866;-29
2022/12/02 09:35:42;;;;;;;30.60;19.27;;;4.80;99.90;;;;;;5068765;28;20293;-29
2022/12/02 09:38:07;;;;;;;29.27;17.20;;;4.80;99.90;;;;;;5068356;28;20612;-29
2022/12/02 09:40:34;;;;;;;33.33;18.17;;;4.70;99.90;;;;;;5068539;28;20177;-29
2022/12/02 09:43:01;;;;;;;29.63;18.40;;;4.70;99.90;;;;;;5068421;28;20196;-28
2022/12/02 09:45:27;;;;;;;29.90;18.13;;;4.80;99.90;;;;;;5068619;28;21279;-28
2022/12/02 09:47:54;;;;;;;31.10;18.50;;;4.70;99.90;;;;;;5068713;28;20476;-28
2022/12/02 09:50:20;;;;;;;32.40;18.53;;;4.70;99.90;;;;;;5068418;28;20339;-28
2022/12/02 09:52:46;;;;;;;28.97;18.03;;;4.80;99.90;;;;;;5068399;28;20412;-28
2022/12/02 09:55:15;;;;;;;30.60;18.23;;;4.80;99.90;;;;;;5068675;28;20641;-29
2022/12/02 09:57:41;;;;;;;27.03;17.63;;;4.70;99.90;;;;;;5068532;28;20462;-28
2022/12/02 10:00:16;;;;;;;28.37;17.60;;;4.80;99.90;;;;;;5068226;28;20420;-29
2022/12/02 10:02:47;;;;;;;26.90;16.97;;;4.80;99.90;;;;;;5068036;28;20407;-29
2022/12/02 10:05:14;;;;;;;30.03;18.93;;;4.90;99.90;;;;;;5068424;28;20458;-28
2022/12/02 10:07:41;;;;;;;28.63;17.93;;;4.90;99.90;;;;;;5068116;28;20449;-28
2022/12/02 10:10:11;;;;;;;25.97;17.23;;;4.90;99.90;;;;;;5067953;28;20415;-28
2022/12/02 10:12:36;;;;;;;28.37;17.80;;;4.90;99.90;;;;;;5068591;28;20412;-28
2022/12/02 10:15:03;;;;;;;27.67;16.83;;;4.90;99.90;;;;;;5068708;28;20420;-29
2022/12/02 10:17:29;;;;;;;30.17;17.70;;;4.50;99.90;;;;;;5084268;28;20227;-29
2022/12/02 10:19:55;;;;;;;30.10;17.00;;;4.90;99.90;;;;;;5086619;28;20410;-28
2022/12/02 10:22:21;;;;;;;27.70;17.37;;;4.90;99.90;;;;;;5088273;28;20777;-29
2022/12/02 10:24:48;;;;;;;27.63;16.07;;;4.90;99.90;;;;;;5072987;28;20411;-28
2022/12/02 10:27:29;;;;;;;29.83;17.37;;;4.90;99.90;;;;;;5068199;28;20411;-28
2022/12/02 10:30:17;;;;;;;30.47;18.03;;;4.90;99.90;;;;;;5067623;28;20415;-29
2022/12/02 10:32:57;;;;;;;28.70;17.57;;;4.90;99.90;;;;;;5067764;28;20798;-28
2022/12/02 10:35:23;;;;;;;28.90;17.87;;;4.80;99.90;;;;;;5066611;28;20418;-30
2022/12/02 10:37:48;;;;;;;28.23;16.83;;;4.80;99.90;;;;;;5067900;28;20451;-28
2022/12/02 10:40:20;;;;;;;26.10;17.87;;;4.70;99.90;;;;;;5067420;28;20423;-28
2022/12/02 10:42:46;;;;;;;28.47;18.33;;;4.90;99.90;;;;;;5067723;28;20188;-28
2022/12/02 10:45:21;;;;;;;27.70;17.60;;;4.80;99.90;;;;;;5067794;28;20415;-29
2022/12/02 10:47:48;;;;;;;28.30;17.80;;;4.80;99.90;;;;;;5067603;28;20807;-29
2022/12/02 10:50:23;;;;;;;32.50;18.57;;;4.80;99.90;;;;;;5067309;28;20442;-28
2022/12/02 10:52:52;;;;;;;28.13;17.10;;;4.80;99.90;;;;;;5067656;28;20508;-28
2022/12/02 10:55:19;;;;;;;31.07;19.97;;;4.80;99.90;;;;;;5067493;28;20758;-28
2022/12/02 10:57:47;;;;;;;34.53;19.33;;;4.90;99.90;;;;;;5067561;28;20640;-29
2022/12/02 11:00:19;;;;;;;28.07;18.60;;;4.70;99.90;;;;;;5067100;28;20412;-29
2022/12/02 11:02:48;;;;;;;32.63;19.70;;;4.70;99.90;;;;;;5067575;28;20762;-28
2022/12/02 11:05:22;;;;;;;28.27;17.73;;;4.80;99.90;;;;;;5067820;28;20837;-29
2022/12/02 11:08:06;;;;;;;39.73;20.43;;;4.90;99.90;;;;;;5067322;28;20498;-29
2022/12/02 11:10:33;;;;;;;32.87;18.90;;;4.60;99.90;;;;;;5067151;28;20777;-28
2022/12/02 11:13:11;;;;;;;32.57;20.80;;;4.60;99.90;;;;;;5067222;28;20411;-28
2022/12/02 11:15:49;;;;;;;34.50;20.60;;;4.70;99.90;;;;;;5068208;28;20796;-29
2022/12/02 11:18:24;;;;;;;33.83;19.90;;;4.90;99.90;;;;;;5087610;28;20460;-28
2022/12/02 11:21:05;;;;;;;30.83;18.77;;;5.00;99.90;;;;;;5087739;28;20471;-29
2022/12/02 11:23:32;;;;;;;38.73;21.33;;;5.00;99.90;;;;;;5082950;28;20400;-28
2022/12/02 11:26:00;;;;;;;33.03;19.20;;;4.70;99.90;;;;;;5067563;28;20408;-28
2022/12/02 11:28:28;;;;;;;33.33;19.57;;;4.80;99.90;;;;;;5067250;28;20418;-28
2022/12/02 11:31:21;;;;;;;31.60;18.97;;;4.80;99.90;;;;;;5067493;28;20430;-29
2022/12/02 11:33:50;;;;;;;30.87;19.03;;;5.00;99.90;;;;;;5065898;28;20442;-28
2022/12/02 11:36:22;;;;;;;33.17;19.90;;;4.90;99.90;;;;;;5067746;28;20505;-28
2022/12/02 11:39:05;;;;;;;32.90;19.87;;;5.00;99.90;;;;;;5067178;28;20447;-28
2022/12/02 11:41:53;;;;;;;35.67;21.10;;;4.90;99.90;;;;;;5067263;28;20905;-28
2022/12/02 11:44:27;;;;;;;33.50;18.70;;;4.80;99.90;;;;;;5066963;28;20472;-28
2022/12/02 11:46:58;;;;;;;29.83;17.80;;;4.80;99.90;;;;;;5067267;28;20420;-29
2022/12/02 11:49:31;;;;;;;34.47;20.70;;;5.00;99.90;;;;;;5066872;28;20682;-29
2022/12/02 11:52:08;;;;;;;33.77;21.13;;;4.80;99.90;;;;;;5067314;28;20514;-29
2022/12/02 11:54:54;;;;;;;32.73;19.57;;;5.10;99.90;;;;;;5066640;28;20407;-29
2022/12/02 11:57:26;;;;;;;35.03;20.93;;;4.90;99.90;;;;;;5067132;28;20524;-28
2022/12/02 11:59:52;;;;;;;31.13;18.73;;;5.00;99.90;;;;;;5066746;28;20906;-28
2022/12/02 12:02:20;;;;;;;35.73;20.03;;;4.90;99.90;;;;;;5069307;28;20447;-28
2022/12/02 12:05:05;;;;;;;36.97;20.60;;;5.00;99.90;;;;;;5070331;28;20403;-29
2022/12/02 12:07:41;;;;;;;38.10;21.10;;;4.90;99.90;;;;;;5070932;28;20684;-29
2022/12/02 12:10:29;;;;;;;35.30;21.87;;;5.00;99.90;;;;;;5070274;28;20844;-29
2022/12/02 12:13:13;;;;;;;33.50;19.97;;;5.00;99.90;;;;;;5070501;28;20743;-29
2022/12/02 12:15:59;;;;;;;38.93;21.40;;;4.70;99.90;;;;;;5070983;28;20419;-29
2022/12/02 12:18:40;;;;;;;38.83;22.53;;;4.90;99.90;;;;;;5090490;28;20418;-29
2022/12/02 12:21:06;;;;;;;33.37;20.73;;;4.80;99.90;;;;;;5090625;28;20402;-28
2022/12/02 12:23:38;;;;;;;35.80;20.67;;;4.70;99.90;;;;;;5084193;28;20430;-28
2022/12/02 12:26:06;;;;;;;36.07;19.97;;;4.90;99.90;;;;;;5070587;28;21011;-29
2022/12/02 12:28:34;;;;;;;35.00;21.37;;;4.60;99.90;;;;;;5070060;28;20427;-29
2022/12/02 12:31:02;;;;;;;39.57;23.67;;;4.70;99.90;;;;;;5070217;28;20889;-29
2022/12/02 12:33:28;;;;;;;42.13;23.23;;;5.00;99.90;;;;;;5069571;28;20412;-28
2022/12/02 12:35:55;;;;;;;44.53;22.20;;;4.90;99.90;;;;;;5070053;28;20469;-29
2022/12/02 12:38:22;;;;;;;40.47;22.67;;;4.70;99.90;;;;;;5070092;28;20415;-29
2022/12/02 12:40:48;;;;;;;42.90;23.97;;;4.80;99.90;;;;;;5070194;28;20687;-28
2022/12/02 12:43:14;;;;;;;39.30;21.87;;;4.80;99.90;;;;;;5069765;28;20423;-28
2022/12/02 12:45:40;;;;;;;41.43;23.87;;;4.70;99.90;;;;;;5070135;28;20181;-28